createdAt,value
2022-10-23T00:01:14.330Z,16.40
2022-10-23T00:03:43.634Z,16.23
2022-10-23T00:06:12.036Z,15.85
2022-10-23T00:08:40.231Z,14.63
2022-10-23T00:11:09.103Z,18.25
2022-10-23T00:13:37.016Z,12.70
2022-10-23T00:16:05.174Z,14.35
2022-10-23T00:18:33.076Z,14.65
2022-10-23T00:21:02.436Z,14.77
2022-10-23T00:23:30.414Z,14.50
2022-10-23T00:25:58.261Z,10.35
2022-10-23T00:28:26.104Z,13.32
2022-10-23T00:30:53.995Z,11.98
2022-10-23T00:33:21.847Z,13.73
2022-10-23T00:35:49.723Z,15.82
2022-10-23T00:38:19.003Z,13.45
2022-10-23T00:40:47.217Z,13.32
2022-10-23T00:43:19.775Z,14.70
2022-10-23T00:45:48.160Z,15.90
2022-10-23T00:48:16.695Z,12.82
2022-10-23T00:50:44.830Z,13.52
2022-10-23T00:53:14.108Z,12.57
2022-10-23T00:55:46.828Z,12.65
2022-10-23T00:58:15.070Z,11.90
2022-10-23T01:00:47.127Z,14.43
2022-10-23T01:03:16.833Z,12.18
2022-10-23T01:05:51.649Z,13.38
2022-10-23T01:08:29.435Z,12.65
2022-10-23T01:11:05.210Z,14.95
2022-10-23T01:13:40.605Z,13.95
2022-10-23T01:16:15.370Z,15.73
2022-10-23T01:18:46.855Z,11.75
2022-10-23T01:21:19.880Z,12.32
2022-10-23T01:24:19.570Z,15.65
2022-10-23T01:27:05.137Z,14.25
2022-10-23T01:29:39.330Z,11.63
2022-10-23T01:32:14.962Z,13.10
2022-10-23T01:34:48.745Z,14.43
2022-10-23T01:37:22.295Z,11.40
2022-10-23T01:39:54.273Z,14.00
2022-10-23T01:42:28.513Z,12.00
2022-10-23T01:45:02.343Z,15.35
2022-10-23T01:47:35.301Z,10.95
2022-10-23T01:50:06.579Z,13.75
2022-10-23T01:52:34.945Z,11.85
2022-10-23T01:55:03.266Z,14.45
2022-10-23T01:57:33.728Z,10.95
2022-10-23T02:00:06.658Z,12.77
2022-10-23T02:02:37.331Z,12.18
2022-10-23T02:05:09.419Z,13.35
2022-10-23T02:07:37.877Z,13.20
2022-10-23T02:10:07.729Z,11.00
2022-10-23T02:12:47.476Z,12.73
2022-10-23T02:15:25.578Z,9.10
2022-10-23T02:18:04.558Z,13.65
2022-10-23T02:20:40.632Z,12.85
2022-10-23T02:23:21.479Z,14.15
2022-10-23T02:25:56.020Z,12.50
2022-10-23T02:28:27.722Z,17.05
2022-10-23T02:31:00.729Z,13.10
2022-10-23T02:33:29.859Z,14.10
2022-10-23T02:35:58.310Z,14.95
2022-10-23T02:38:35.125Z,13.35
2022-10-23T02:41:15.075Z,13.43
2022-10-23T02:43:53.079Z,16.23
2022-10-23T02:46:30.412Z,14.57
2022-10-23T02:49:09.653Z,15.63
2022-10-23T02:51:49.226Z,14.52
2022-10-23T02:54:27.000Z,15.75
2022-10-23T02:57:02.953Z,14.75
2022-10-23T02:59:38.271Z,15.40
2022-10-23T03:02:12.539Z,15.82
2022-10-23T03:04:43.944Z,14.77
2022-10-23T03:07:12.986Z,19.27
2022-10-23T03:09:43.879Z,17.17
2022-10-23T03:12:11.827Z,17.98
2022-10-23T03:14:42.071Z,17.50
2022-10-23T03:19:43.199Z,17.45
2022-10-23T03:22:11.046Z,20.52
2022-10-23T03:24:38.892Z,18.75
2022-10-23T03:27:06.724Z,24.98
2022-10-23T03:29:35.797Z,24.25
2022-10-23T03:32:03.639Z,26.13
2022-10-23T03:34:32.921Z,21.20
2022-10-23T03:37:00.753Z,21.60
2022-10-23T03:39:28.790Z,38.42
2022-10-23T03:41:56.655Z,58.17
2022-10-23T03:44:24.554Z,51.63
2022-10-23T03:46:52.423Z,27.67
2022-10-23T03:49:20.490Z,42.08
2022-10-23T03:51:52.181Z,35.55
2022-10-23T03:54:22.495Z,38.38
2022-10-23T03:59:24.659Z,54.35
2022-10-23T04:01:52.962Z,33.42
2022-10-23T04:04:21.034Z,74.97
2022-10-23T04:06:50.259Z,25.85
2022-10-23T04:09:18.422Z,21.88
2022-10-23T04:11:46.259Z,31.92
2022-10-23T04:14:14.924Z,35.65
2022-10-23T04:16:42.792Z,43.58
2022-10-23T04:19:10.962Z,41.50
2022-10-23T04:21:38.941Z,38.33
2022-10-23T04:24:08.714Z,23.80
2022-10-23T04:26:36.641Z,30.63
2022-10-23T04:29:04.527Z,35.38
2022-10-23T04:31:32.392Z,44.60
2022-10-23T04:34:00.342Z,43.55
2022-10-23T04:36:28.231Z,23.83
2022-10-23T04:38:56.115Z,21.20
2022-10-23T04:41:25.564Z,31.88
2022-10-23T04:43:53.435Z,35.30
2022-10-23T04:46:21.287Z,28.33
2022-10-23T04:48:49.144Z,22.33
2022-10-23T04:51:17.090Z,42.03
2022-10-23T04:53:44.954Z,24.33
2022-10-23T04:56:14.821Z,26.25
2022-10-23T04:58:44.231Z,22.92
2022-10-23T05:01:12.515Z,15.50
2022-10-23T05:03:40.513Z,26.33
2022-10-23T05:06:08.580Z,19.15
2022-10-23T05:08:36.974Z,15.35
2022-10-23T05:11:05.216Z,36.63
2022-10-23T05:13:33.317Z,26.08
2022-10-23T05:16:02.580Z,14.98
2022-10-23T05:18:35.417Z,20.63
2022-10-23T05:21:07.814Z,23.38
2022-10-23T05:23:38.055Z,17.58
2022-10-23T05:28:33.885Z,23.02
2022-10-23T05:31:06.179Z,37.70
2022-10-23T05:33:34.474Z,16.60
2022-10-23T05:36:03.147Z,20.05
2022-10-23T05:38:34.144Z,19.17
2022-10-23T05:41:02.106Z,18.02
2022-10-23T05:43:31.293Z,28.30
2022-10-23T05:46:00.008Z,19.70
2022-10-23T05:48:34.842Z,21.23
2022-10-23T05:51:06.855Z,34.95
2022-10-23T05:53:40.130Z,15.70
2022-10-23T05:56:10.957Z,19.92
2022-10-23T05:58:38.822Z,16.92
2022-10-23T06:01:08.128Z,16.55
2022-10-23T06:03:38.635Z,23.13
2022-10-23T06:06:07.720Z,35.13
2022-10-23T06:08:35.916Z,55.40
2022-10-23T06:11:08.378Z,24.10
2022-10-23T06:13:36.845Z,19.92
2022-10-23T06:16:11.673Z,65.13
2022-10-23T06:18:40.921Z,21.80
2022-10-23T06:21:12.068Z,11.10
2022-10-23T06:23:41.059Z,12.55
2022-10-23T06:26:12.460Z,14.80
2022-10-23T06:28:40.554Z,30.60
2022-10-23T06:31:09.312Z,26.77
2022-10-23T06:33:37.676Z,22.45
2022-10-23T06:36:10.412Z,8.82
2022-10-23T06:38:40.425Z,16.67
2022-10-23T06:41:13.652Z,22.10
2022-10-23T06:43:41.536Z,37.72
2022-10-23T06:46:10.058Z,11.32
2022-10-23T06:48:37.967Z,9.35
2022-10-23T06:51:09.724Z,9.60
2022-10-23T06:53:38.252Z,15.95
2022-10-23T06:56:08.410Z,8.90
2022-10-23T07:01:07.481Z,18.40
2022-10-23T07:03:35.793Z,9.95
2022-10-23T07:06:04.505Z,23.75
2022-10-23T07:08:33.943Z,33.78
2022-10-23T07:11:05.003Z,12.05
2022-10-23T07:13:34.155Z,12.02
2022-10-23T07:16:11.450Z,17.83
2022-10-23T07:18:39.311Z,10.25
2022-10-23T07:21:07.271Z,20.95
2022-10-23T07:23:36.579Z,12.95
2022-10-23T07:26:07.056Z,9.07
2022-10-23T07:28:34.942Z,16.27
2022-10-23T07:31:05.413Z,11.45
2022-10-23T07:33:33.267Z,18.10
2022-10-23T07:36:01.151Z,12.32
2022-10-23T07:38:29.002Z,10.73
2022-10-23T07:40:59.846Z,9.35
2022-10-23T07:43:28.210Z,10.30
2022-10-23T07:45:56.413Z,9.55
2022-10-23T07:48:27.705Z,7.97
2022-10-23T07:51:01.000Z,9.02
2022-10-23T07:53:29.413Z,7.05
2022-10-23T07:56:01.238Z,8.88
2022-10-23T07:58:30.076Z,9.07
2022-10-23T08:01:02.730Z,9.43
2022-10-23T08:03:32.982Z,7.85
2022-10-23T08:08:28.826Z,7.07
2022-10-23T08:10:57.825Z,10.70
2022-10-23T08:13:29.895Z,9.65
2022-10-23T08:15:58.807Z,9.07
2022-10-23T08:18:26.797Z,7.65
2022-10-23T08:20:54.779Z,7.10
2022-10-23T08:23:22.636Z,8.00
2022-10-23T08:25:50.478Z,9.77
2022-10-23T08:28:18.335Z,8.98
2022-10-23T08:30:47.575Z,8.95
2022-10-23T08:33:15.431Z,9.05
2022-10-23T08:35:43.289Z,8.70
2022-10-23T08:38:11.953Z,8.55
2022-10-23T08:40:44.615Z,8.63
2022-10-23T08:43:17.215Z,7.40
2022-10-23T08:45:50.192Z,8.73
2022-10-23T08:48:24.107Z,8.02
2022-10-23T08:50:57.204Z,7.07
2022-10-23T08:53:31.293Z,10.10
2022-10-23T08:56:03.800Z,9.07
2022-10-23T08:58:38.540Z,9.73
2022-10-23T09:01:37.240Z,7.78
2022-10-23T09:04:06.461Z,8.10
2022-10-23T09:06:40.120Z,7.88
2022-10-23T09:09:29.962Z,8.05
2022-10-23T09:12:04.612Z,7.80
2022-10-23T09:15:01.838Z,8.50
2022-10-23T09:17:32.631Z,25.40
2022-10-23T09:20:15.510Z,8.63
2022-10-23T09:22:43.596Z,6.93
2022-10-23T09:25:12.709Z,9.82
2022-10-23T09:27:48.639Z,7.85
2022-10-23T09:30:31.990Z,7.63
2022-10-23T09:33:01.752Z,12.35
2022-10-23T09:35:31.267Z,7.35
2022-10-23T09:37:59.316Z,8.55
2022-10-23T09:40:33.442Z,7.80
2022-10-23T09:43:03.850Z,7.60
2022-10-23T09:45:34.475Z,8.43
2022-10-23T09:48:13.327Z,9.55
2022-10-23T09:50:50.045Z,6.63
2022-10-23T09:53:23.665Z,6.53
2022-10-23T09:55:56.468Z,6.68
2022-10-23T09:58:31.830Z,6.47
2022-10-23T10:00:59.824Z,8.20
2022-10-23T10:03:29.137Z,7.00
2022-10-23T10:06:00.080Z,6.55
2022-10-23T10:08:36.378Z,6.63
2022-10-23T10:11:11.579Z,6.78
2022-10-23T10:13:59.929Z,7.20
2022-10-23T10:19:18.765Z,6.95
2022-10-23T10:21:53.728Z,8.10
2022-10-23T10:24:27.035Z,7.15
2022-10-23T10:27:04.347Z,8.43
2022-10-23T10:29:51.298Z,7.80
2022-10-23T10:32:33.047Z,5.18
2022-10-23T10:35:18.003Z,5.10
2022-10-23T10:38:06.140Z,7.15
2022-10-23T10:40:37.275Z,5.05
2022-10-23T10:43:29.861Z,5.05
2022-10-23T10:46:08.108Z,5.05
2022-10-23T10:48:46.669Z,6.75
2022-10-23T10:51:25.251Z,3.92
2022-10-23T10:54:09.787Z,4.47
2022-10-23T10:56:42.835Z,4.53
2022-10-23T10:59:16.856Z,5.07
2022-10-23T11:01:52.683Z,4.80
2022-10-23T11:04:33.230Z,5.05
2022-10-23T11:07:08.192Z,6.25
2022-10-23T11:09:36.271Z,4.15
2022-10-23T11:12:04.406Z,4.38
2022-10-23T11:14:35.303Z,4.25
2022-10-23T11:17:09.271Z,3.67
2022-10-23T11:19:42.712Z,8.02
2022-10-23T11:22:23.174Z,6.05
2022-10-23T11:25:06.985Z,3.38
2022-10-23T11:27:54.534Z,3.67
2022-10-23T11:30:30.192Z,7.43
2022-10-23T11:33:31.425Z,3.25
2022-10-23T11:36:07.174Z,5.18
2022-10-23T11:38:39.359Z,2.67
2022-10-23T11:41:21.056Z,8.50
2022-10-23T11:43:55.404Z,4.18
2022-10-23T11:46:35.307Z,3.75
2022-10-23T11:49:06.229Z,5.15
2022-10-23T11:51:38.832Z,3.50
2022-10-23T11:54:24.681Z,3.03
2022-10-23T11:56:56.485Z,3.20
2022-10-23T11:59:29.063Z,2.75
2022-10-23T12:01:59.480Z,2.38
2022-10-23T12:04:32.039Z,4.03
2022-10-23T12:07:04.833Z,3.60
2022-10-23T12:09:41.515Z,2.05
2022-10-23T12:12:18.095Z,3.05
2022-10-23T12:14:47.599Z,2.55
2022-10-23T12:17:32.462Z,3.40
2022-10-23T12:20:19.302Z,4.38
2022-10-23T12:22:59.840Z,3.22
2022-10-23T12:25:38.790Z,4.15
2022-10-23T12:28:13.800Z,4.85
2022-10-23T12:30:45.676Z,2.78
2022-10-23T12:35:48.835Z,1.77
2022-10-23T12:38:19.447Z,2.20
2022-10-23T12:40:51.801Z,2.00
2022-10-23T12:43:27.215Z,2.47
2022-10-23T12:45:57.378Z,2.75
2022-10-23T12:48:26.213Z,2.45
2022-10-23T12:50:57.307Z,1.80
2022-10-23T12:53:25.334Z,2.25
2022-10-23T12:58:33.941Z,2.58
2022-10-23T13:01:04.479Z,1.90
2022-10-23T13:03:35.330Z,1.65
2022-10-23T13:06:05.478Z,8.10
2022-10-23T13:08:35.731Z,2.20
2022-10-23T13:11:04.403Z,3.67
2022-10-23T13:13:32.606Z,1.77
2022-10-23T13:16:00.478Z,2.60
2022-10-23T13:18:28.317Z,2.00
2022-10-23T13:20:59.613Z,2.05
2022-10-23T13:23:32.373Z,3.65
2022-10-23T13:26:02.036Z,2.42
2022-10-23T13:28:33.217Z,2.63
2022-10-23T13:31:24.128Z,2.58
2022-10-23T13:34:04.787Z,3.28
2022-10-23T13:36:36.548Z,4.68
2022-10-23T13:39:14.833Z,3.17
2022-10-23T13:41:45.011Z,3.08
2022-10-23T13:44:14.509Z,3.50
2022-10-23T13:46:42.690Z,4.35
2022-10-23T13:49:10.824Z,4.45
2022-10-23T13:51:43.405Z,4.13
2022-10-23T13:54:16.669Z,4.30
2022-10-23T13:56:44.579Z,2.40
2022-10-23T13:59:13.343Z,3.72
2022-10-23T14:01:41.939Z,8.02
2022-10-23T14:04:11.275Z,3.40
2022-10-23T14:06:39.932Z,5.25
2022-10-23T14:09:09.341Z,4.28
2022-10-23T14:11:38.613Z,2.30
2022-10-23T14:14:06.660Z,7.32
2022-10-23T14:16:34.664Z,4.13
2022-10-23T14:19:02.533Z,3.58
2022-10-23T14:21:30.396Z,4.57
2022-10-23T14:23:58.750Z,2.78
2022-10-23T14:26:30.348Z,2.28
2022-10-23T14:29:02.917Z,3.28
2022-10-23T14:31:35.590Z,5.70
2022-10-23T14:34:03.504Z,3.03
2022-10-23T14:36:38.790Z,4.40
2022-10-23T14:39:17.880Z,4.25
2022-10-23T14:41:45.827Z,4.47
2022-10-23T14:44:15.172Z,3.97
2022-10-23T14:46:43.007Z,3.72
2022-10-23T14:49:10.887Z,6.30
2022-10-23T14:51:38.892Z,5.28
2022-10-23T14:54:08.109Z,8.07
2022-10-23T14:56:38.288Z,5.03
2022-10-23T14:59:10.833Z,6.03
2022-10-23T15:01:45.097Z,7.45
2022-10-23T15:04:16.294Z,4.78
2022-10-23T15:06:46.760Z,7.70
2022-10-23T15:09:14.871Z,3.85
2022-10-23T15:11:42.987Z,4.47
2022-10-23T15:14:10.868Z,5.70
2022-10-23T15:16:42.240Z,6.97
2022-10-23T15:19:15.142Z,5.18
2022-10-23T15:21:46.263Z,4.50
2022-10-23T15:24:14.100Z,5.05
2022-10-23T15:26:43.231Z,7.75
2022-10-23T15:29:12.309Z,9.38
2022-10-23T15:31:47.090Z,9.80
2022-10-23T15:34:17.384Z,8.38
2022-10-23T15:39:17.096Z,7.97
2022-10-23T15:41:45.745Z,13.65
2022-10-23T15:44:16.888Z,9.05
2022-10-23T15:46:46.127Z,9.07
2022-10-23T15:49:14.292Z,7.45
2022-10-23T15:51:43.061Z,9.13
2022-10-23T15:54:16.500Z,13.68
2022-10-23T15:56:44.528Z,11.00
2022-10-23T15:59:12.606Z,11.82
2022-10-23T16:01:40.599Z,9.38
2022-10-23T16:04:10.097Z,8.43
2022-10-23T16:06:38.198Z,12.47
2022-10-23T16:09:06.162Z,30.50
2022-10-23T16:11:36.247Z,31.58
2022-10-23T16:14:04.366Z,35.67
2022-10-23T16:16:33.772Z,54.85
2022-10-23T16:19:02.176Z,63.23
2022-10-23T16:21:33.788Z,62.95
2022-10-23T16:24:03.209Z,44.83
2022-10-23T16:26:32.085Z,38.80
2022-10-23T16:29:01.870Z,29.10
2022-10-23T16:31:30.239Z,29.23
2022-10-23T16:34:00.282Z,34.00
2022-10-23T16:36:28.457Z,28.58
2022-10-23T16:38:57.957Z,21.77
2022-10-23T16:41:25.840Z,14.00
2022-10-23T16:43:53.695Z,16.83
2022-10-23T16:46:23.067Z,12.30
2022-10-23T16:48:53.023Z,12.15
2022-10-23T16:51:23.158Z,11.63
2022-10-23T16:53:51.364Z,9.43
2022-10-23T16:56:22.539Z,10.48
2022-10-23T16:58:50.550Z,9.52
2022-10-23T17:01:21.395Z,10.38
2022-10-23T17:03:51.085Z,12.57
2022-10-23T17:06:21.500Z,7.07
2022-10-23T17:11:18.893Z,6.88
2022-10-23T17:13:53.633Z,10.00
2022-10-23T17:16:27.884Z,7.00
2022-10-23T17:18:57.588Z,9.05
2022-10-23T17:21:25.834Z,10.38
2022-10-23T17:23:53.935Z,9.88
2022-10-23T17:26:23.623Z,10.50
2022-10-23T17:28:53.098Z,9.15
2022-10-23T17:31:23.300Z,8.00
2022-10-23T17:33:53.458Z,15.73
2022-10-23T17:36:22.469Z,15.60
2022-10-23T17:38:50.691Z,13.88
2022-10-23T17:41:21.443Z,12.98
2022-10-23T17:43:49.906Z,11.20
2022-10-23T17:46:19.936Z,8.57
2022-10-23T17:48:47.780Z,11.23
2022-10-23T17:51:19.522Z,12.85
2022-10-23T17:53:49.597Z,7.63
2022-10-23T17:56:20.072Z,7.80
2022-10-23T17:58:48.163Z,8.77
2022-10-23T18:01:18.715Z,11.45
2022-10-23T18:03:48.150Z,9.20
2022-10-23T18:06:18.446Z,8.25
2022-10-23T18:11:16.761Z,9.73
2022-10-23T18:13:44.936Z,10.05
2022-10-23T18:16:13.416Z,8.05
2022-10-23T18:18:42.497Z,10.55
2022-10-23T18:21:12.051Z,8.43
2022-10-23T18:23:39.907Z,12.63
2022-10-23T18:26:15.958Z,7.80
2022-10-23T18:28:44.955Z,13.93
2022-10-23T18:31:13.897Z,12.60
2022-10-23T18:33:42.517Z,13.93
2022-10-23T18:36:17.028Z,11.10
2022-10-23T18:38:45.027Z,9.88
2022-10-23T18:41:13.035Z,9.23
2022-10-23T18:43:44.204Z,11.05
2022-10-23T18:46:13.251Z,9.75
2022-10-23T18:48:41.260Z,8.65
2022-10-23T18:51:16.181Z,10.40
2022-10-23T18:53:46.735Z,11.02
2022-10-23T18:56:15.747Z,14.27
2022-10-23T18:58:46.713Z,11.13
2022-10-23T19:01:14.627Z,9.63
2022-10-23T19:03:42.655Z,9.73
2022-10-23T19:06:10.977Z,9.50
2022-10-23T19:08:45.144Z,10.13
2022-10-23T19:11:14.066Z,10.40
2022-10-23T19:13:43.134Z,11.23
2022-10-23T19:16:15.872Z,8.88
2022-10-23T19:18:48.158Z,8.68
2022-10-23T19:21:17.666Z,11.85
2022-10-23T19:23:47.830Z,14.77
2022-10-23T19:26:16.474Z,10.38
2022-10-23T19:28:48.446Z,11.57
2022-10-23T19:31:16.744Z,11.05
2022-10-23T19:33:44.730Z,16.73
2022-10-23T19:36:14.274Z,18.60
2022-10-23T19:38:43.160Z,17.15
2022-10-23T19:41:12.479Z,13.45
2022-10-23T19:43:40.316Z,44.05
2022-10-23T19:46:11.244Z,48.53
2022-10-23T19:48:42.591Z,39.45
2022-10-23T19:51:10.530Z,32.90
2022-10-23T19:53:38.434Z,22.75
2022-10-23T19:56:08.620Z,10.18
2022-10-23T19:58:38.324Z,12.75
2022-10-23T20:01:11.080Z,10.55
2022-10-23T20:03:39.841Z,8.15
2022-10-23T20:06:10.592Z,8.75
2022-10-23T20:08:38.490Z,9.35
2022-10-23T20:11:07.098Z,7.60
2022-10-23T20:13:35.580Z,7.88
2022-10-23T20:16:05.014Z,7.22
2022-10-23T20:18:32.899Z,10.20
2022-10-23T20:21:02.597Z,9.20
2022-10-23T20:23:30.652Z,6.93
2022-10-23T20:26:05.292Z,8.20
2022-10-23T20:28:33.295Z,12.35
2022-10-23T20:31:03.239Z,10.63
2022-10-23T20:33:32.707Z,10.32
2022-10-23T20:36:00.624Z,10.00
2022-10-23T20:38:28.462Z,8.20
2022-10-23T20:40:57.497Z,7.45
2022-10-23T20:43:25.517Z,7.60
2022-10-23T20:45:53.511Z,6.40
2022-10-23T20:48:21.355Z,9.30
2022-10-23T20:50:50.924Z,8.50
2022-10-23T20:53:18.759Z,9.88
2022-10-23T20:55:46.607Z,8.15
2022-10-23T20:58:14.485Z,10.90
2022-10-23T21:00:42.355Z,6.65
2022-10-23T21:03:10.262Z,13.63
2022-10-23T21:05:38.184Z,7.82
2022-10-23T21:08:07.983Z,7.95
2022-10-23T21:10:35.899Z,9.95
2022-10-23T21:13:06.707Z,6.07
2022-10-23T21:15:34.536Z,5.43
2022-10-23T21:18:19.183Z,5.43
2022-10-23T21:20:55.746Z,7.63
2022-10-23T21:23:24.978Z,4.50
2022-10-23T21:25:53.109Z,5.40
2022-10-23T21:28:20.988Z,5.50
2022-10-23T21:30:48.814Z,5.68
2022-10-23T21:33:16.891Z,5.10
2022-10-23T21:35:57.814Z,6.15
2022-10-23T21:38:28.115Z,3.55
2022-10-23T21:40:56.166Z,4.97
2022-10-23T21:43:24.012Z,6.30
2022-10-23T21:45:54.327Z,4.32
2022-10-23T21:48:23.399Z,8.63
2022-10-23T21:50:57.477Z,3.35
2022-10-23T21:53:25.468Z,5.68
2022-10-23T21:55:56.068Z,5.68
2022-10-23T21:58:23.974Z,5.05
2022-10-23T22:00:51.842Z,5.57
2022-10-23T22:03:19.786Z,5.53
2022-10-23T22:05:47.859Z,4.90
2022-10-23T22:08:15.672Z,4.20
2022-10-23T22:10:43.595Z,4.60
2022-10-23T22:13:15.676Z,4.88
2022-10-23T22:18:16.283Z,3.28
2022-10-23T22:20:44.189Z,46.65
2022-10-23T22:23:12.030Z,82.63
2022-10-23T22:25:39.946Z,13.15
2022-10-23T22:28:07.851Z,7.90
2022-10-23T22:30:38.594Z,5.35
2022-10-23T22:33:06.486Z,6.20
2022-10-23T22:35:34.539Z,5.60
2022-10-23T22:38:02.427Z,6.32
2022-10-23T22:40:30.375Z,12.45
2022-10-23T22:42:58.278Z,16.55
2022-10-23T22:45:26.136Z,13.73
2022-10-23T22:47:55.358Z,12.48
2022-10-23T22:50:23.267Z,5.65
2022-10-23T22:52:51.480Z,3.85
2022-10-23T22:55:22.069Z,6.55
2022-10-23T22:57:49.929Z,3.85
2022-10-23T23:00:18.730Z,5.45
2022-10-23T23:02:46.634Z,5.22
2022-10-23T23:05:16.146Z,4.70
2022-10-23T23:07:44.142Z,4.60
2022-10-23T23:10:12.276Z,3.65
2022-10-23T23:12:40.115Z,6.38
2022-10-23T23:15:09.078Z,5.55
2022-10-23T23:17:36.934Z,6.70
2022-10-23T23:20:05.270Z,5.88
2022-10-23T23:22:34.475Z,20.45
2022-10-23T23:25:02.349Z,37.47
2022-10-23T23:27:33.025Z,42.33
2022-10-23T23:30:01.067Z,45.10
2022-10-23T23:32:29.055Z,38.55
2022-10-23T23:35:00.048Z,24.95
2022-10-23T23:37:30.740Z,6.25
2022-10-23T23:40:00.023Z,6.63
2022-10-23T23:42:28.247Z,29.08
2022-10-23T23:45:02.706Z,16.30
2022-10-23T23:47:38.022Z,10.00
2022-10-23T23:50:07.884Z,11.77
2022-10-23T23:52:36.173Z,13.82
2022-10-23T23:55:06.230Z,6.53
2022-10-23T23:57:34.192Z,4.45
